Weather History for Fremont, NE

Change the Weather History Date:

Wednesday, November 21, 2012

  Actual Average Record
Temperature  
Mean Temperature 58 °F -  
Max Temperature 72 °F 45 °F 72 °F (2012)
Min Temperature 44 °F 24 °F 2 °F (1964)
Degree Days  
Heating Degree Days 7    
Growing Degree Days 8 (Base 50)    
Moisture  
Dew Point 42 °F    
Average Humidity 56    
Maximum Humidity 77    
Minimum Humidity 33    
Precipitation  
Precipitation 0.00 in - - ()
Sea Level Pressure  
Sea Level Pressure 29.96 in    
Wind  
Wind Speed 10 mph (South)    
Max Wind Speed 21 mph    
Max Gust Speed 31 mph    
Visibility 10 miles    
Events      
Averages and records for this station are not official NWS values.
T = Trace of Precipitation, MM = Missing Value Source: NWS Daily Summary

Daily Weather History Graph

Daily Weather History Graph

Search for Another Location

Airport:

Trip Planner

Search our weather history database for the weather conditions in past years. The results will help you decide how hot, cold, wet, or windy it might be!

Date:

Astronomy

Nov. 21, 2012 Rise Set
Actual Time 7:22 AM CST 5:01 PM CST
Civil Twilight 6:52 AM CST 5:31 PM CST
Nautical Twilight 6:18 AM CST 6:05 PM CST
Astronomical Twilight 5:45 AM CST 6:38 PM CST
Moon 1:22 PM CST 12:38 AM CST
Length of Visible Light 10h 39m
Length of Day
9h 39m
First Quarter, 62% of the Moon is Illuminated
Nov 21
First Quarter
Nov 28
Full
Dec 6
Last Quarter
Dec 13
New
Dec 19
First Quarter

Hourly Weather History & Observations

Time (CST) Temp. Windchill Dew Point Humidity Pressure Visibility Wind Dir Wind Speed Gust Speed Precip Events Conditions
12:15 AM 50.2 °F - 36.5 °F 59% 30.10 in 10.0 mi South 9.2 mph - N/A   Clear
12:35 AM 49.1 °F - 36.3 °F 61% 30.10 in 10.0 mi South 8.1 mph - N/A   Clear
12:55 AM 48.4 °F - 36.5 °F 64% 30.09 in 10.0 mi South 9.2 mph - N/A   Clear
1:15 AM 49.1 °F - 36.5 °F 62% 30.09 in 10.0 mi South 10.4 mph 17.3 mph N/A   Clear
1:35 AM 49.6 °F - 36.7 °F 61% 30.08 in 10.0 mi SSE 9.2 mph - N/A   Clear
1:55 AM 48.9 °F - 36.7 °F 63% 30.08 in 10.0 mi South 8.1 mph - N/A   Clear
2:15 AM 49.6 °F - 37.0 °F 62% 30.08 in 10.0 mi South 9.2 mph - N/A   Clear
2:35 AM 50.5 °F - 37.4 °F 61% 30.08 in 10.0 mi South 10.4 mph 17.3 mph N/A   Clear
2:55 AM 50.9 °F - 37.4 °F 60% 30.08 in 10.0 mi South 9.2 mph 18.4 mph N/A   Clear
3:15 AM 50.7 °F - 37.4 °F 60% 30.08 in 10.0 mi South 8.1 mph - N/A   Clear
3:35 AM 50.4 °F - 37.4 °F 61% 30.08 in 10.0 mi South 5.8 mph - N/A   Clear
3:55 AM 48.9 °F - 37.4 °F 64% 30.08 in 10.0 mi Calm Calm - N/A   Clear
4:15 AM 47.3 °F - 37.0 °F 68% 30.08 in 10.0 mi SE 3.5 mph - N/A   Clear
4:35 AM 45.7 °F 44.4 °F 37.0 °F 72% 30.08 in 10.0 mi SSE 3.5 mph - N/A   Clear
4:55 AM 45.7 °F - 36.9 °F 71% 30.08 in 10.0 mi Calm Calm - N/A   Clear
5:15 AM 45.7 °F - 37.6 °F 73% 30.08 in 10.0 mi Calm Calm - N/A   Clear
5:35 AM 45.7 °F 44.4 °F 37.6 °F 73% 30.07 in 10.0 mi South 3.5 mph - N/A   Clear
5:55 AM 45.0 °F - 37.4 °F 75% 30.07 in 10.0 mi Calm Calm - N/A   Clear
6:15 AM 45.3 °F - 37.2 °F 73% 30.07 in 10.0 mi Calm Calm - N/A   Clear
6:35 AM 44.6 °F - 37.6 °F 76% 30.07 in 10.0 mi Calm Calm - N/A   Clear
6:55 AM 45.3 °F 42.3 °F 37.9 °F 75% 30.07 in 10.0 mi SSE 5.8 mph - N/A   Clear
7:15 AM 45.5 °F 44.2 °F 37.9 °F 75% 30.06 in 10.0 mi SSE 3.5 mph - N/A   Clear
7:35 AM 44.8 °F 42.4 °F 37.9 °F 77% 30.06 in 10.0 mi SE 4.6 mph - N/A   Clear
7:55 AM 44.6 °F 43.1 °F 37.8 °F 77% 30.06 in 10.0 mi SE 3.5 mph - N/A   Clear
8:15 AM 45.7 °F 43.4 °F 38.8 °F 77% 30.06 in 10.0 mi SSE 4.6 mph - N/A   Clear
8:35 AM 49.1 °F - 40.1 °F 71% 30.06 in 10.0 mi South 5.8 mph - N/A   Clear
8:55 AM 50.7 °F - 40.5 °F 68% 30.05 in 10.0 mi South 9.2 mph - N/A   Clear
9:15 AM 52.7 °F - 41.2 °F 65% 30.05 in 10.0 mi South 10.4 mph - N/A   Clear
9:35 AM 54.3 °F - 41.9 °F 63% 30.05 in 10.0 mi South 13.8 mph 18.4 mph N/A   Clear
9:55 AM 56.3 °F - 42.3 °F 59% 30.05 in 10.0 mi South 10.4 mph 19.6 mph N/A   Clear
10:15 AM 58.3 °F - 43.3 °F 58% 30.04 in 10.0 mi SSW 13.8 mph 21.9 mph N/A   Clear
10:35 AM 60.4 °F - 43.9 °F 54% 30.04 in 10.0 mi SSW 15.0 mph 20.7 mph N/A   Clear
10:55 AM 63.0 °F - 44.8 °F 51% 30.03 in 10.0 mi SSW 18.4 mph 26.5 mph N/A   Clear
11:15 AM 64.6 °F - 45.0 °F 49% 30.02 in 10.0 mi South 18.4 mph 29.9 mph N/A   Clear
11:35 AM 65.5 °F - 45.0 °F 47% 30.01 in 10.0 mi South 17.3 mph 25.3 mph N/A   Clear
11:55 AM 67.3 °F - 45.5 °F 45% 30.00 in 10.0 mi South 18.4 mph 27.6 mph N/A   Clear
12:15 PM 67.6 °F - 45.3 °F 45% 29.98 in 10.0 mi South 20.7 mph 26.5 mph N/A   Clear
12:35 PM 69.4 °F - 45.5 °F 42% 29.97 in 10.0 mi South 18.4 mph 27.6 mph N/A   Clear
12:55 PM 70.2 °F - 45.1 °F 41% 29.96 in 10.0 mi South 15.0 mph 26.5 mph N/A   Clear
1:15 PM 70.9 °F - 44.2 °F 38% 29.94 in 10.0 mi South 19.6 mph 28.8 mph N/A   Clear
1:35 PM 72.0 °F - 44.1 °F 37% 29.93 in 10.0 mi South 16.1 mph 27.6 mph N/A   Clear
1:55 PM 71.6 °F - 44.1 °F 37% 29.92 in 10.0 mi South 18.4 mph 25.3 mph N/A   Clear
2:15 PM 72.0 °F - 43.7 °F 36% 29.90 in 10.0 mi South 19.6 mph 31.1 mph N/A   Clear
2:35 PM 72.0 °F - 44.1 °F 37% 29.89 in 10.0 mi South 20.7 mph 27.6 mph N/A   Clear
2:55 PM 72.7 °F - 43.7 °F 35% 29.88 in 10.0 mi South 18.4 mph 24.2 mph N/A   Clear
3:15 PM 72.5 °F - 43.2 °F 35% 29.88 in 10.0 mi South 13.8 mph 26.5 mph N/A   Clear
3:35 PM 72.1 °F - 41.5 °F 33% 29.87 in 10.0 mi South 20.7 mph 29.9 mph N/A   Clear
3:55 PM 71.6 °F - 41.5 °F 34% 29.86 in 10.0 mi South 17.3 mph - N/A   Clear
4:15 PM 71.1 °F - 41.7 °F 35% 29.86 in 10.0 mi South 20.7 mph 27.6 mph N/A   Clear
4:35 PM 69.8 °F - 41.5 °F 36% 29.85 in 10.0 mi South 15.0 mph 20.7 mph N/A   Clear
4:55 PM 68.7 °F - 40.5 °F 36% 29.86 in 10.0 mi South 12.7 mph 19.6 mph N/A   Clear
5:15 PM 67.3 °F - 39.9 °F 37% 29.86 in 10.0 mi South 15.0 mph 19.6 mph N/A   Clear
5:35 PM 66.9 °F - 39.6 °F 37% 29.87 in 10.0 mi South 12.7 mph - N/A   Clear
5:55 PM 64.6 °F - 39.7 °F 40% 29.87 in 10.0 mi South 10.4 mph - N/A   Clear
6:15 PM 64.6 °F - 41.4 °F 43% 29.86 in 10.0 mi South 11.5 mph - N/A   Clear
6:35 PM 64.4 °F - 41.9 °F 44% 29.86 in 10.0 mi South 13.8 mph 18.4 mph N/A   Clear
6:55 PM 64.0 °F - 42.4 °F 45% 29.86 in 10.0 mi South 12.7 mph 20.7 mph N/A   Clear
7:15 PM 62.1 °F - 42.8 °F 49% 29.86 in 10.0 mi SSE 11.5 mph - N/A   Clear
7:35 PM 61.3 °F - 43.7 °F 52% 29.85 in 10.0 mi SSE 11.5 mph - N/A   Clear
7:55 PM 60.8 °F - 44.4 °F 55% 29.85 in 10.0 mi SSE 11.5 mph - N/A   Clear
8:15 PM 59.4 °F - 44.8 °F 58% 29.84 in 10.0 mi SSE 11.5 mph - N/A   Clear
8:35 PM 60.4 °F - 45.7 °F 58% 29.84 in 10.0 mi SSE 11.5 mph - N/A   Clear
8:55 PM 59.7 °F - 46.2 °F 61% 29.84 in 10.0 mi SSE 10.4 mph - N/A   Clear
9:15 PM 59.5 °F - 46.9 °F 63% 29.84 in 10.0 mi South 11.5 mph - N/A   Clear
9:35 PM 59.0 °F - 47.3 °F 65% 29.83 in 10.0 mi SSE 10.4 mph - N/A   Clear
9:55 PM 58.6 °F - 47.3 °F 66% 29.83 in 10.0 mi SSE 10.4 mph - N/A   Clear
10:15 PM 59.4 °F - 47.3 °F 64% 29.82 in 10.0 mi South 10.4 mph - N/A   Clear
10:35 PM 60.3 °F - 47.3 °F 62% 29.81 in 10.0 mi South 13.8 mph 20.7 mph N/A   Clear
10:55 PM 60.4 °F - 47.3 °F 62% 29.79 in 10.0 mi South 16.1 mph 20.7 mph N/A   Clear
11:15 PM 60.3 °F - 47.1 °F 62% 29.79 in 10.0 mi SSE 12.7 mph 20.7 mph N/A   Clear
11:35 PM 59.9 °F - 46.8 °F 62% 29.78 in 10.0 mi South 11.5 mph - N/A   Clear
11:55 PM 60.1 °F - 46.6 °F 61% 29.78 in 10.0 mi South 12.7 mph 18.4 mph N/A   Clear